CheckWX is a tool to help pilots better visualize weather data.  It is not intended as a substitute for an official pre-flight weather briefing.

20:29:11 UTC

VTBD TAF
Don Mueang International Airport
Bangkok, Thailand
TAF VTBD 251700Z 2518/2624 20005KT 9999 FEW020 BECMG 2520/2522 12005KT BECMG 2600/2602 20008KT TEMPO 2606/2612 24010G20KT 5000 TSRA FEW018CB SCT030 BKN100

Jun-25@
18:00 UTC

Jun-25 @ 18:00 UTC

Jun-25@
20:00 UTC

Jun-25 @ 20:00 UTC

TAF VTBD 251700Z 2518/2624 20005KT 9999 FEW020

Expired

Wind
  • 200° at 5 KTS
Cloud Levels
  • Few at 2,000' AGL

Jun-25@
20:00 UTC

Jun-25 @ 20:00 UTC

Jun-26@
00:00 UTC

Jun-26 @ 00:00 UTC

BECMG 2520/2522 12005KT

Becoming

Becoming Conditions expected by Tue, Jun 25, 2019 @ 22:00 UTC

Wind
  • 120° at 5 KTS
Cloud Levels
  • Few at 2,000' AGL

Jun-26@
00:00 UTC

Jun-26 @ 00:00 UTC

Jun-27@
00:00 UTC

Jun-27 @ 00:00 UTC

BECMG 2600/2602 20008KT

Becoming

Becoming Conditions expected by Wed, Jun 26, 2019 @ 02:00 UTC

Wind
  • 200° at 8 KTS
Cloud Levels
  • Few at 2,000' AGL

Jun-26@
06:00 UTC

Jun-26 @ 06:00 UTC

Jun-26@
12:00 UTC

Jun-26 @ 12:00 UTC

TEMPO 2606/2612 24010G20KT 5000 TSRA FEW018CB SCT030 BKN100

Temporary

Temporary Changes expected for less than half the time period

Wind
  • 240° at 10 KTS
  • {Gusting to 20 KTS
Conditions
Thunderstorm, Rain
Cloud Levels
  • Few at 1,800' AGL
  • Scattered at 3,000' AGL
  • Broken at 10,000' AGL